map of NPA home
NPA - Airport
Location
City:  Pensacola, Florida, United States
Name:Pensacola NAS/Forrest Sherman Field
ICAO:KNPA
IATA:NPA
FAA LID:NPA

Details
Type:Airport (Airfield)
Use:Military
Latitude:3021'12"N (30.353273)
Longitude:8719'05"W (-87.317970)
Datum:WGS 1984
Elevation:28 ft (9 m)
Variation:2.81W (WMM2015v2 magnetic declination)
-0.08 annual change
Runways:3
Longest:8001 × 200 ft (2439 × 61 m), paved

Time
Time Zone:UTC-6 (DST-5)
Local Time:

Weather
METAR:KNPA 041356Z VRB03KT 8SM FEW005 BKN020 OVC085 16/16 A3005 RMK AO2 SLP177 T01610161

Related Locations
Nearby:
Farthest:CCK: 11153 mi / 17949 km
West Island (Pulau Panjang) [Cocos (Keeling) Islands], CC

Find:

   beyond  
but within

Other Information
Maps:
NOTAMs:
Links:
Sources:

  
  • flag of United States
  • flag of Florida
  

Airport Diagram

Airport diagram for NPA

Airport diagram PDF from FAA

Sectional Chart

Flight Planning
at skyvector.com

Satellite Image

Google Maps Satellite view

 

Copyright © 2004-2019 Karl L. Swartz. All rights reserved.
The Great Circle Mapper name and logo are trademarks of the Great Circle Mapper.
All other trademarks mentioned herein belong to their respective owners.
Please see credits for attibutions and further copyright information.

  Follow gcmap on Facebook Follow gcmap on Twitter GCmap on LinkedIn

hCard Microformat

Geo Microformat